createdAt,value
2019-04-04T00:01:31.288Z,14.50
2019-04-04T00:04:00.098Z,19.97
2019-04-04T00:06:28.995Z,16.23
2019-04-04T00:08:57.906Z,14.60
2019-04-04T00:11:26.791Z,13.10
2019-04-04T00:13:55.667Z,17.43
2019-04-04T00:16:24.523Z,13.23
2019-04-04T00:18:53.334Z,17.60
2019-04-04T00:21:22.236Z,14.33
2019-04-04T00:23:51.032Z,18.40
2019-04-04T00:26:19.826Z,13.90
2019-04-04T00:28:48.620Z,17.10
2019-04-04T00:31:19.803Z,18.37
2019-04-04T00:33:48.626Z,16.20
2019-04-04T00:36:17.535Z,14.10
2019-04-04T00:38:52.347Z,17.87
2019-04-04T00:41:21.580Z,16.77
2019-04-04T00:43:51.873Z,12.27
2019-04-04T00:46:21.190Z,16.05
2019-04-04T00:48:50.004Z,19.00
2019-04-04T00:51:19.020Z,19.00
2019-04-04T00:53:47.912Z,20.20
2019-04-04T00:56:18.228Z,14.40
2019-04-04T00:58:47.396Z,22.53
2019-04-04T01:01:16.711Z,17.40
2019-04-04T01:03:45.563Z,18.83
2019-04-04T01:06:14.384Z,13.67
2019-04-04T01:08:43.204Z,17.33
2019-04-04T01:11:12.102Z,17.53
2019-04-04T01:13:40.906Z,15.10
2019-04-04T01:16:09.808Z,16.90
2019-04-04T01:18:38.685Z,18.07
2019-04-04T01:21:08.510Z,16.47
2019-04-04T01:23:38.861Z,17.20
2019-04-04T01:26:08.040Z,15.37
2019-04-04T01:28:37.209Z,18.47
2019-04-04T01:31:07.735Z,19.73
2019-04-04T01:33:36.655Z,21.13
2019-04-04T01:36:05.773Z,18.00
2019-04-04T01:38:34.615Z,20.00
2019-04-04T01:41:04.498Z,16.60
2019-04-04T01:43:34.092Z,21.27
2019-04-04T01:46:03.018Z,21.97
2019-04-04T01:48:31.868Z,22.70
2019-04-04T01:51:00.735Z,18.67
2019-04-04T01:53:30.147Z,19.30
2019-04-04T01:55:59.643Z,19.30
2019-04-04T01:58:28.575Z,21.63
2019-04-04T02:00:57.474Z,21.50
2019-04-04T02:03:26.464Z,26.27
2019-04-04T02:05:56.205Z,22.20
2019-04-04T02:08:26.712Z,21.43
2019-04-04T02:10:55.543Z,28.73
2019-04-04T02:13:24.820Z,20.20
2019-04-04T02:15:53.706Z,24.60
2019-04-04T02:18:23.581Z,21.27
2019-04-04T02:20:53.031Z,20.80
2019-04-04T02:23:21.862Z,16.50
2019-04-04T02:25:50.686Z,19.03
2019-04-04T02:28:19.635Z,21.77
2019-04-04T02:30:49.276Z,22.90
2019-04-04T02:33:18.355Z,26.30
2019-04-04T02:35:47.181Z,21.47
2019-04-04T02:38:16.090Z,20.73
2019-04-04T02:40:44.920Z,19.30
2019-04-04T02:43:13.808Z,20.20
2019-04-04T02:45:42.705Z,17.97
2019-04-04T02:48:11.587Z,20.87
2019-04-04T02:50:40.480Z,19.50
2019-04-04T02:53:09.289Z,22.67
2019-04-04T02:55:38.278Z,21.90
2019-04-04T02:58:07.214Z,28.90
2019-04-04T03:00:36.233Z,29.73
2019-04-04T03:03:08.053Z,21.67
2019-04-04T03:05:35.918Z,20.10
2019-04-04T03:08:04.895Z,17.90
2019-04-04T03:10:34.500Z,19.07
2019-04-04T03:13:03.449Z,19.10
2019-04-04T03:15:32.432Z,18.43
2019-04-04T03:18:03.911Z,26.27
2019-04-04T03:20:32.115Z,28.40
2019-04-04T03:23:01.506Z,23.30
2019-04-04T03:25:30.451Z,23.87
2019-04-04T03:27:59.520Z,24.00
2019-04-04T03:30:28.348Z,26.10
2019-04-04T03:32:57.303Z,27.60
2019-04-04T03:35:28.655Z,22.33
2019-04-04T03:37:56.767Z,28.33
2019-04-04T03:40:25.917Z,24.90
2019-04-04T03:42:54.977Z,28.83
2019-04-04T03:45:27.258Z,25.00
2019-04-04T03:47:54.773Z,25.47
2019-04-04T03:50:23.603Z,24.40
2019-04-04T03:52:52.410Z,20.60
2019-04-04T03:55:21.228Z,22.47
2019-04-04T03:57:51.856Z,22.27
2019-04-04T04:00:27.330Z,20.80
2019-04-04T04:02:56.359Z,20.63
2019-04-04T04:05:34.042Z,20.77
2019-04-04T04:08:00.633Z,24.57
2019-04-04T04:10:32.251Z,24.40
2019-04-04T04:13:00.064Z,30.23
2019-04-04T04:15:30.362Z,20.27
2019-04-04T04:17:59.520Z,32.30
2019-04-04T04:20:28.588Z,22.13
2019-04-04T04:22:57.422Z,22.67
2019-04-04T04:25:26.230Z,19.50
2019-04-04T04:27:55.192Z,20.63
2019-04-04T04:30:24.146Z,19.03
2019-04-04T04:32:56.246Z,20.77
2019-04-04T04:35:23.823Z,18.60
2019-04-04T04:37:53.876Z,18.80
2019-04-04T04:40:23.025Z,18.30
2019-04-04T04:42:51.869Z,23.10
2019-04-04T04:45:20.703Z,23.17
2019-04-04T04:47:49.501Z,22.47
2019-04-04T04:50:18.476Z,26.40
2019-04-04T04:52:47.719Z,30.10
2019-04-04T04:55:16.650Z,26.80
2019-04-04T04:57:45.727Z,22.87
2019-04-04T05:00:16.069Z,22.77
2019-04-04T05:02:45.378Z,21.30
2019-04-04T05:05:14.525Z,29.27
2019-04-04T05:07:43.387Z,21.73
2019-04-04T05:10:14.655Z,27.77
2019-04-04T05:12:43.173Z,23.27
2019-04-04T05:15:12.359Z,36.40
2019-04-04T05:17:42.072Z,33.60
2019-04-04T05:20:11.842Z,31.10
2019-04-04T05:22:40.754Z,15.57
2019-04-04T05:25:10.273Z,19.00
2019-04-04T05:27:39.587Z,24.87
2019-04-04T05:30:08.776Z,22.20
2019-04-04T05:32:37.762Z,22.00
2019-04-04T05:35:06.999Z,17.70
2019-04-04T05:37:37.871Z,26.10
2019-04-04T05:40:07.963Z,21.73
2019-04-04T05:42:36.943Z,24.83
2019-04-04T05:45:13.911Z,16.27
2019-04-04T05:47:41.314Z,20.63
2019-04-04T05:50:11.310Z,21.40
2019-04-04T05:52:41.267Z,28.00
2019-04-04T05:55:11.027Z,36.20
2019-04-04T05:57:40.283Z,19.10
2019-04-04T06:00:14.050Z,25.83
2019-04-04T06:02:43.985Z,25.70
2019-04-04T06:05:13.897Z,17.57
2019-04-04T06:07:42.818Z,32.13
2019-04-04T06:10:12.501Z,18.27
2019-04-04T06:12:41.559Z,23.93
2019-04-04T06:15:10.726Z,23.37
2019-04-04T06:17:39.927Z,21.67
2019-04-04T06:20:09.373Z,20.03
2019-04-04T06:22:38.510Z,14.83
2019-04-04T06:25:07.789Z,22.20
2019-04-04T06:27:39.906Z,18.90
2019-04-04T06:30:08.062Z,26.17
2019-04-04T06:32:38.862Z,19.70
2019-04-04T06:35:07.783Z,17.23
2019-04-04T06:37:38.653Z,18.57
2019-04-04T06:40:08.235Z,25.90
2019-04-04T06:42:37.316Z,18.50
2019-04-04T06:45:07.084Z,23.23
2019-04-04T06:47:35.993Z,39.27
2019-04-04T06:50:08.074Z,20.77
2019-04-04T06:52:37.385Z,19.70
2019-04-04T06:55:06.541Z,17.57
2019-04-04T06:57:36.626Z,15.90
2019-04-04T07:00:08.551Z,21.90
2019-04-04T07:02:37.750Z,26.73
2019-04-04T07:05:10.536Z,17.00
2019-04-04T07:07:41.045Z,33.33
2019-04-04T07:10:10.409Z,21.57
2019-04-04T07:12:39.370Z,18.73
2019-04-04T07:15:11.012Z,17.97
2019-04-04T07:17:41.175Z,17.07
2019-04-04T07:20:10.867Z,16.40
2019-04-04T07:22:39.745Z,23.73
2019-04-04T07:25:10.516Z,54.90
2019-04-04T07:27:39.811Z,21.10
2019-04-04T07:30:10.029Z,24.63
2019-04-04T07:32:41.602Z,18.60
2019-04-04T07:35:10.376Z,18.40
2019-04-04T07:37:39.483Z,18.87
2019-04-04T07:40:08.756Z,16.73
2019-04-04T07:42:40.137Z,24.43
2019-04-04T07:45:09.351Z,19.20
2019-04-04T07:47:38.325Z,13.70
2019-04-04T07:50:07.265Z,20.40
2019-04-04T07:52:36.131Z,19.30
2019-04-04T07:55:05.297Z,23.37
2019-04-04T07:57:34.714Z,28.40
2019-04-04T08:00:05.279Z,24.87
2019-04-04T08:02:34.102Z,16.47
2019-04-04T08:05:03.086Z,19.73
2019-04-04T08:07:31.903Z,20.17
2019-04-04T08:10:01.621Z,31.33
2019-04-04T08:12:30.524Z,16.90
2019-04-04T08:14:59.343Z,20.80
2019-04-04T08:17:28.151Z,22.00
2019-04-04T08:19:59.969Z,20.30
2019-04-04T08:22:28.107Z,17.00
2019-04-04T08:24:56.953Z,24.03
2019-04-04T08:27:25.764Z,17.90
2019-04-04T08:29:54.650Z,26.97
2019-04-04T08:32:23.664Z,21.03
2019-04-04T08:34:52.646Z,16.13
2019-04-04T08:37:21.587Z,27.43
2019-04-04T08:39:50.470Z,18.43
2019-04-04T08:42:19.958Z,23.70
2019-04-04T08:44:48.785Z,26.70
2019-04-04T08:47:17.613Z,25.20
2019-04-04T08:49:46.681Z,16.60
2019-04-04T08:52:17.262Z,16.47
2019-04-04T08:54:46.045Z,28.43
2019-04-04T08:57:15.208Z,16.20
2019-04-04T08:59:44.822Z,36.23
2019-04-04T09:02:13.913Z,27.57
2019-04-04T09:04:42.763Z,27.33
2019-04-04T09:07:11.586Z,28.60
2019-04-04T09:09:40.558Z,21.47
2019-04-04T09:14:44.405Z,22.37
2019-04-04T09:17:13.301Z,18.67
2019-04-04T09:19:42.707Z,17.67
2019-04-04T09:22:11.748Z,22.10
2019-04-04T09:24:40.608Z,24.03
2019-04-04T09:27:09.609Z,25.27
2019-04-04T09:29:57.707Z,19.93
2019-04-04T09:32:26.806Z,20.57
2019-04-04T09:34:55.699Z,18.90
2019-04-04T09:37:24.586Z,15.80
2019-04-04T09:39:53.678Z,15.80
2019-04-04T09:42:22.571Z,13.83
2019-04-04T09:44:51.388Z,17.50
2019-04-04T09:47:20.384Z,18.37
2019-04-04T09:49:49.691Z,17.10
2019-04-04T09:52:18.538Z,12.00
2019-04-04T09:54:47.690Z,17.00
2019-04-04T09:57:17.420Z,14.83
2019-04-04T09:59:46.243Z,15.77
2019-04-04T10:02:15.632Z,13.77
2019-04-04T10:04:44.554Z,16.27
2019-04-04T10:07:13.379Z,15.47
2019-04-04T10:09:42.505Z,13.50
2019-04-04T10:12:11.575Z,15.93
2019-04-04T10:14:40.406Z,16.60
2019-04-04T10:17:09.620Z,14.50
2019-04-04T10:19:38.426Z,20.70
2019-04-04T10:22:07.406Z,16.30
2019-04-04T10:24:36.210Z,13.53
2019-04-04T10:27:05.359Z,10.67
2019-04-04T10:29:34.351Z,18.03
2019-04-04T10:32:03.526Z,12.37
2019-04-04T10:34:32.455Z,15.83
2019-04-04T10:37:01.339Z,12.87
2019-04-04T10:39:32.714Z,13.97
2019-04-04T10:42:00.947Z,28.90
2019-04-04T10:44:29.852Z,13.33
2019-04-04T10:46:58.779Z,15.20
2019-04-04T10:49:27.712Z,16.80
2019-04-04T10:51:56.751Z,16.10
2019-04-04T10:54:25.732Z,14.33
2019-04-04T10:56:54.738Z,21.47
2019-04-04T10:59:23.647Z,19.30
2019-04-04T11:01:52.477Z,14.97
2019-04-04T11:04:21.334Z,13.80
2019-04-04T11:06:50.277Z,15.13
2019-04-04T11:09:19.249Z,15.77
2019-04-04T11:11:48.158Z,15.70
2019-04-04T11:14:17.042Z,12.07
2019-04-04T11:16:45.928Z,15.70
2019-04-04T11:19:15.047Z,20.10
2019-04-04T11:21:43.877Z,16.40
2019-04-04T11:24:13.128Z,20.40
2019-04-04T11:26:42.035Z,15.80
2019-04-04T11:29:10.960Z,20.60
2019-04-04T11:31:39.928Z,27.03
2019-04-04T11:34:08.749Z,18.97
2019-04-04T11:36:37.619Z,19.97
2019-04-04T11:39:08.898Z,20.17
2019-04-04T11:41:37.722Z,13.80
2019-04-04T11:44:06.643Z,16.73
2019-04-04T11:46:35.593Z,21.47
2019-04-04T11:49:04.754Z,12.10
2019-04-04T11:51:33.613Z,15.37
2019-04-04T11:54:03.207Z,12.63
2019-04-04T11:56:32.401Z,12.37
2019-04-04T11:59:01.247Z,36.43
2019-04-04T12:01:31.818Z,18.67
2019-04-04T12:04:00.633Z,16.33
2019-04-04T12:06:29.467Z,13.57
2019-04-04T12:08:59.222Z,15.17
2019-04-04T12:11:28.116Z,19.27
2019-04-04T12:13:57.092Z,20.50
2019-04-04T12:16:26.376Z,17.10
2019-04-04T12:18:55.575Z,17.97
2019-04-04T12:21:24.509Z,15.37
2019-04-04T12:23:53.417Z,17.73
2019-04-04T12:26:22.409Z,10.77
2019-04-04T12:28:51.213Z,17.10
2019-04-04T12:31:20.050Z,17.33
2019-04-04T12:33:49.050Z,16.50
2019-04-04T12:36:24.555Z,22.37
2019-04-04T12:38:49.573Z,17.90
2019-04-04T12:41:18.560Z,17.97
2019-04-04T12:43:47.525Z,14.23
2019-04-04T12:46:16.348Z,11.00
2019-04-04T12:48:45.231Z,9.93
2019-04-04T12:51:14.188Z,10.87
2019-04-04T12:53:43.477Z,11.40
2019-04-04T12:56:12.460Z,11.80
2019-04-04T12:58:41.387Z,8.60
2019-04-04T13:01:10.751Z,10.07
2019-04-04T13:03:39.612Z,13.53
2019-04-04T13:06:08.596Z,14.03
2019-04-04T13:08:37.555Z,23.93
2019-04-04T13:11:07.037Z,17.63
2019-04-04T13:13:38.122Z,15.73
2019-04-04T13:16:06.631Z,15.70
2019-04-04T13:18:35.613Z,21.37
2019-04-04T13:21:04.919Z,25.60
2019-04-04T13:23:33.720Z,15.20
2019-04-04T13:26:02.885Z,18.03
2019-04-04T13:28:31.835Z,16.00
2019-04-04T13:31:00.811Z,13.70
2019-04-04T13:33:29.810Z,14.80
2019-04-04T13:35:58.620Z,23.53
2019-04-04T13:38:27.492Z,20.03
2019-04-04T13:40:56.448Z,15.90
2019-04-04T13:43:25.681Z,21.60
2019-04-04T13:45:54.578Z,18.80
2019-04-04T13:48:23.401Z,15.03
2019-04-04T13:50:52.283Z,15.53
2019-04-04T13:53:23.133Z,17.60
2019-04-04T13:55:52.157Z,18.20
2019-04-04T13:58:22.203Z,21.23
2019-04-04T14:00:51.697Z,19.20
2019-04-04T14:03:21.487Z,15.50
2019-04-04T14:05:50.475Z,17.23
2019-04-04T14:08:19.432Z,15.40
2019-04-04T14:10:57.947Z,15.23
2019-04-04T14:13:19.278Z,13.87
2019-04-04T14:15:48.096Z,13.20
2019-04-04T14:18:23.895Z,14.13
2019-04-04T14:21:03.393Z,13.33
2019-04-04T14:23:24.719Z,14.77
2019-04-04T14:25:54.971Z,20.13
2019-04-04T14:28:24.396Z,14.43
2019-04-04T14:30:53.337Z,14.37
2019-04-04T14:33:22.631Z,14.67
2019-04-04T14:35:51.449Z,27.47
2019-04-04T14:38:20.722Z,20.43
2019-04-04T14:40:49.737Z,18.80
2019-04-04T14:43:18.859Z,17.80
2019-04-04T14:45:47.659Z,19.97
2019-04-04T14:48:16.599Z,12.50
2019-04-04T14:50:45.845Z,14.60
2019-04-04T14:53:14.810Z,14.77
2019-04-04T14:55:43.758Z,15.87
2019-04-04T14:58:12.606Z,14.33
2019-04-04T15:00:41.407Z,14.47
2019-04-04T15:03:10.261Z,16.90
2019-04-04T15:05:39.143Z,16.47
2019-04-04T15:08:08.034Z,18.27
2019-04-04T15:10:39.007Z,23.77
2019-04-04T15:13:07.584Z,13.13
2019-04-04T15:15:36.461Z,16.53
2019-04-04T15:18:06.211Z,12.80
2019-04-04T15:20:35.419Z,14.57
2019-04-04T15:23:04.388Z,15.53
2019-04-04T15:25:33.226Z,14.03
2019-04-04T15:28:02.068Z,18.90
2019-04-04T15:30:31.391Z,12.87
2019-04-04T15:33:02.574Z,16.97
2019-04-04T15:35:30.887Z,10.93
2019-04-04T15:37:59.861Z,16.60
2019-04-04T15:40:28.782Z,15.67
2019-04-04T15:42:57.698Z,14.43
2019-04-04T15:45:26.513Z,10.13
2019-04-04T15:47:55.372Z,12.57
2019-04-04T15:50:24.186Z,11.40
2019-04-04T15:52:53.016Z,16.83
2019-04-04T15:55:21.930Z,12.60
2019-04-04T15:57:50.828Z,11.27
2019-04-04T16:00:19.717Z,12.87
2019-04-04T16:02:48.544Z,16.57
2019-04-04T16:05:17.856Z,9.70
2019-04-04T16:07:46.752Z,10.47
2019-04-04T16:10:15.826Z,13.37
2019-04-04T16:12:44.677Z,11.60
2019-04-04T16:15:13.767Z,17.00
2019-04-04T16:17:42.601Z,18.10
2019-04-04T16:20:12.089Z,13.83
2019-04-04T16:22:40.970Z,15.67
2019-04-04T16:25:10.086Z,15.67
2019-04-04T16:27:39.098Z,16.23
2019-04-04T16:30:08.396Z,17.03
2019-04-04T16:32:37.888Z,12.10
2019-04-04T16:35:06.912Z,16.60
2019-04-04T16:37:35.802Z,15.17
2019-04-04T16:40:09.157Z,12.63
2019-04-04T16:42:36.688Z,16.10
2019-04-04T16:45:07.628Z,17.30
2019-04-04T16:47:36.887Z,13.20
2019-04-04T16:50:07.355Z,18.30
2019-04-04T16:52:36.379Z,20.13
2019-04-04T16:55:06.008Z,17.37
2019-04-04T16:57:34.904Z,13.40
2019-04-04T17:00:04.980Z,16.87
2019-04-04T17:02:33.840Z,15.40
2019-04-04T17:05:03.062Z,15.70
2019-04-04T17:07:31.980Z,26.27
2019-04-04T17:10:00.932Z,19.43
2019-04-04T17:12:29.749Z,20.70
2019-04-04T17:14:58.632Z,20.27
2019-04-04T17:17:27.550Z,17.90
2019-04-04T17:19:56.568Z,17.53
2019-04-04T17:22:25.802Z,23.73
2019-04-04T17:24:55.111Z,18.27
2019-04-04T17:27:24.033Z,18.00
2019-04-04T17:29:53.448Z,16.27
2019-04-04T17:32:22.399Z,18.90
2019-04-04T17:34:51.463Z,18.50
2019-04-04T17:37:20.435Z,20.50
2019-04-04T17:39:50.333Z,25.63
2019-04-04T17:42:28.994Z,19.47
2019-04-04T17:44:50.340Z,15.20
2019-04-04T17:47:19.278Z,17.63
2019-04-04T17:49:48.268Z,15.60
2019-04-04T17:52:17.291Z,18.70
2019-04-04T17:54:46.265Z,15.20
2019-04-04T17:57:15.562Z,22.70
2019-04-04T17:59:44.710Z,19.03
2019-04-04T18:02:14.936Z,21.43
2019-04-04T18:04:48.521Z,25.10
2019-04-04T18:07:15.211Z,23.33
2019-04-04T18:09:45.751Z,23.03
2019-04-04T18:12:16.913Z,26.93
2019-04-04T18:14:46.658Z,24.07
2019-04-04T18:17:16.681Z,23.53
2019-04-04T18:19:45.806Z,21.10
2019-04-04T18:22:15.280Z,21.50
2019-04-04T18:24:44.924Z,21.20
2019-04-04T18:27:13.823Z,28.87
2019-04-04T18:29:42.672Z,24.20
2019-04-04T18:32:15.011Z,20.77
2019-04-04T18:34:44.028Z,21.47
2019-04-04T18:37:13.010Z,27.37
2019-04-04T18:39:41.893Z,21.70
2019-04-04T18:42:10.826Z,30.63
2019-04-04T18:44:40.042Z,24.40
2019-04-04T18:47:08.943Z,20.60
2019-04-04T18:49:38.355Z,27.67
2019-04-04T18:52:07.979Z,23.83
2019-04-04T18:54:36.827Z,24.17
2019-04-04T18:57:05.830Z,25.83
2019-04-04T18:59:34.733Z,20.40
2019-04-04T19:02:03.656Z,21.70
2019-04-04T19:04:32.675Z,24.70
2019-04-04T19:07:01.653Z,21.90
2019-04-04T19:09:30.846Z,29.23
2019-04-04T19:12:00.022Z,28.33
2019-04-04T19:14:28.863Z,25.63
2019-04-04T19:16:57.759Z,26.80
2019-04-04T19:19:26.660Z,28.67
2019-04-04T19:21:55.854Z,28.10
2019-04-04T19:24:24.659Z,33.67
2019-04-04T19:26:53.600Z,26.27
2019-04-04T19:29:22.449Z,30.60
2019-04-04T19:31:51.599Z,31.57
2019-04-04T19:34:20.560Z,25.47
2019-04-04T19:36:49.507Z,31.20
2019-04-04T19:39:18.632Z,35.30
2019-04-04T19:41:47.670Z,35.70
2019-04-04T19:44:16.548Z,29.90
2019-04-04T19:46:45.397Z,35.90
2019-04-04T19:49:14.348Z,38.00
2019-04-04T19:51:43.157Z,24.80
2019-04-04T19:54:12.012Z,32.33
2019-04-04T19:56:40.998Z,33.93
2019-04-04T19:59:09.960Z,30.73
2019-04-04T20:01:38.883Z,30.00
2019-04-04T20:04:08.806Z,32.57
2019-04-04T20:06:37.794Z,31.87
2019-04-04T20:09:07.517Z,32.40
2019-04-04T20:11:36.414Z,39.57
2019-04-04T20:14:05.597Z,28.80
2019-04-04T20:16:34.530Z,31.87
2019-04-04T20:19:03.864Z,34.00
2019-04-04T20:21:32.743Z,40.73
2019-04-04T20:24:05.045Z,33.00
2019-04-04T20:26:33.955Z,37.13
2019-04-04T20:29:03.009Z,32.57
2019-04-04T20:31:32.013Z,28.87
2019-04-04T20:34:03.246Z,35.87
2019-04-04T20:36:31.709Z,28.13
2019-04-04T20:39:00.655Z,29.27
2019-04-04T20:41:30.032Z,30.03
2019-04-04T20:43:58.960Z,33.07
2019-04-04T20:46:27.859Z,33.67
2019-04-04T20:48:56.783Z,36.03
2019-04-04T20:51:25.674Z,31.60
2019-04-04T20:53:54.522Z,34.40
2019-04-04T20:56:23.359Z,29.53
2019-04-04T20:58:52.171Z,27.93
2019-04-04T21:01:21.032Z,34.60
2019-04-04T21:03:49.912Z,38.50
2019-04-04T21:06:18.745Z,36.33
2019-04-04T21:08:47.591Z,34.53
2019-04-04T21:11:16.414Z,37.83
2019-04-04T21:13:55.582Z,31.03
2019-04-04T21:16:15.918Z,37.53
2019-04-04T21:18:45.073Z,37.30
2019-04-04T21:21:13.987Z,28.37
2019-04-04T21:23:43.140Z,29.67
2019-04-04T21:26:12.039Z,40.47
2019-04-04T21:28:40.942Z,36.17
2019-04-04T21:31:09.855Z,36.00
2019-04-04T21:33:38.650Z,36.17
2019-04-04T21:36:07.963Z,31.17
2019-04-04T21:38:36.846Z,25.87
2019-04-04T21:41:05.757Z,26.93
2019-04-04T21:43:34.798Z,31.40
2019-04-04T21:46:04.114Z,30.60
2019-04-04T21:48:33.016Z,31.20
2019-04-04T21:51:01.865Z,25.57
2019-04-04T21:53:30.707Z,24.63
2019-04-04T21:55:59.660Z,34.67
2019-04-04T21:58:28.572Z,28.37
2019-04-04T22:00:57.629Z,27.40
2019-04-04T22:03:26.607Z,28.97
2019-04-04T22:05:55.505Z,25.70
2019-04-04T22:08:24.575Z,31.90
2019-04-04T22:10:53.572Z,29.57
2019-04-04T22:13:22.464Z,31.20
2019-04-04T22:15:51.392Z,24.57
2019-04-04T22:18:20.215Z,33.80
2019-04-04T22:20:49.123Z,27.43
2019-04-04T22:23:17.939Z,26.43
2019-04-04T22:25:46.854Z,34.37
2019-04-04T22:28:15.752Z,25.30
2019-04-04T22:30:45.364Z,27.33
2019-04-04T22:33:14.287Z,29.37
2019-04-04T22:35:43.097Z,32.60
2019-04-04T22:38:12.004Z,27.23
2019-04-04T22:40:40.912Z,31.63
2019-04-04T22:43:09.730Z,31.53
2019-04-04T22:45:38.619Z,27.67
2019-04-04T22:48:07.430Z,37.03
2019-04-04T22:50:36.367Z,36.57
2019-04-04T22:53:05.275Z,28.13
2019-04-04T22:55:34.176Z,26.87
2019-04-04T22:58:03.071Z,35.10
2019-04-04T23:00:31.953Z,31.13
2019-04-04T23:03:02.035Z,27.10
2019-04-04T23:05:30.861Z,26.90
2019-04-04T23:07:59.759Z,29.03
2019-04-04T23:10:28.596Z,30.33
2019-04-04T23:12:57.503Z,28.43
2019-04-04T23:15:26.318Z,26.87
2019-04-04T23:17:55.199Z,29.20
2019-04-04T23:20:24.315Z,29.87
2019-04-04T23:22:53.575Z,26.27
2019-04-04T23:25:22.370Z,27.33
2019-04-04T23:27:51.183Z,25.90
2019-04-04T23:30:20.388Z,28.20
2019-04-04T23:32:49.325Z,27.93
2019-04-04T23:35:18.136Z,30.20
2019-04-04T23:37:46.973Z,22.43
2019-04-04T23:40:15.768Z,27.27
2019-04-04T23:42:44.750Z,32.70
2019-04-04T23:45:13.709Z,28.80
2019-04-04T23:47:43.591Z,31.90
2019-04-04T23:50:13.070Z,29.87
2019-04-04T23:52:41.895Z,24.57
2019-04-04T23:55:10.845Z,29.03
2019-04-04T23:57:39.645Z,27.17
